Flight Track Log - Related Links

Times and Time Zones

All times are in EST time to prevent confusion due to time zone crossing. See the AFL150 flight status page for this flight to view local times or setup timezone preferences in your user account.

Time Position Orientation Groundspeed Altitude Reporting Facility
EST Latitude Longitude Course Direction KTS MPH feet Rate Location/Type
Thu 04:35:00 AM 56.1758 37.1708 319° Northwest  Level FlightAware Approximate
Thu 04:36:00 AM 56.2662 37.0255 318° Northwest  Level FlightAware Approximate
Thu 04:37:00 AM 56.3564 36.8796 318° Northwest  Level FlightAware Approximate
Thu 04:38:00 AM 56.4465 36.7329 318° Northwest  Level FlightAware Approximate
Thu 04:39:00 AM 56.5364 36.5855 318° Northwest  Level FlightAware Approximate
Thu 04:40:00 AM 56.6261 36.4375 318° Northwest  Level FlightAware Approximate
Thu 04:41:00 AM 56.7157 36.2887 318° Northwest  Level FlightAware Approximate
Thu 04:42:00 AM 56.8050 36.1392 318° Northwest  Level FlightAware Approximate
Thu 04:43:00 AM 56.8942 35.9890 317° Northwest  Level FlightAware Approximate
Thu 04:44:00 AM 56.9832 35.8381 317° Northwest  Level FlightAware Approximate
Thu 04:45:00 AM 57.0720 35.6865 317° Northwest  Level FlightAware Approximate
Thu 04:46:00 AM 57.1607 35.5341 317° Northwest  Level FlightAware Approximate
Thu 04:47:00 AM 57.2491 35.3811 317° Northwest  Level FlightAware Approximate
Thu 04:48:00 AM 57.3374 35.2272 317° Northwest  Level FlightAware Approximate
Thu 04:49:00 AM 57.4254 35.0727 317° Northwest  Level FlightAware Approximate
Thu 04:50:00 AM 57.5133 34.9174 317° Northwest  Level FlightAware Approximate
Thu 04:51:00 AM 57.6010 34.7613 316° Northwest  Level FlightAware Approximate
Thu 04:52:00 AM 57.6391 34.6911 315° West  Level FlightAware Approximate
Thu 04:53:00 AM 57.7244 34.5298 315° West  Level FlightAware Approximate
Thu 04:54:00 AM 57.8094 34.3679 315° West  Level FlightAware Approximate
Thu 04:55:00 AM 57.8943 34.2051 314° West  Level FlightAware Approximate
Thu 04:56:00 AM 57.9789 34.0416 314° West  Level FlightAware Approximate
Thu 04:57:00 AM 58.0633 33.8773 314° West  Level FlightAware Approximate
Thu 04:58:00 AM 58.1475 33.7122 314° West  Level FlightAware Approximate
Thu 04:59:00 AM 58.2315 33.5463 314° West  Level FlightAware Approximate
Thu 05:00:00 AM 58.3153 33.3797 314° West  Level FlightAware Approximate
Thu 05:01:00 AM 58.3989 33.2123 314° West  Level FlightAware Approximate
Thu 05:02:00 AM 58.4823 33.0440 314° West  Level FlightAware Approximate
Thu 05:03:00 AM 58.5654 32.8750 313° West  Level FlightAware Approximate
Thu 05:04:00 AM 58.6483 32.7052 313° West  Level FlightAware Approximate
Thu 05:05:00 AM 58.7309 32.5345 313° West  Level FlightAware Approximate
Thu 05:06:00 AM 58.8134 32.3631 313° West  Level FlightAware Approximate
Thu 05:07:00 AM 58.8956 32.1909 313° West  Level FlightAware Approximate
Thu 05:08:00 AM 58.9779 32.0182 313° West  Level FlightAware Approximate
Thu 05:09:00 AM 59.0598 31.8447 313° West  Level FlightAware Approximate
Thu 05:10:00 AM 59.1416 31.6703 312° West  Level FlightAware Approximate
Thu 05:11:00 AM 59.2231 31.4951 312° West  Level FlightAware Approximate
Thu 05:12:00 AM 59.3044 31.3191 312° West  Level FlightAware Approximate
Thu 05:13:00 AM 59.3854 31.1422 312° West  Level FlightAware Approximate
Thu 05:14:00 AM 59.4662 30.9645 312° West  Level FlightAware Approximate
Thu 05:15:00 AM 59.5467 30.7860 312° West  Level FlightAware Approximate
Thu 05:16:00 AM 59.6270 30.6065 312° West  Level FlightAware Approximate
Thu 05:17:00 AM 59.7071 30.4263 311° West  Level FlightAware Approximate
Thu 05:18:00 AM 59.7869 30.2451 311° West  Level FlightAware Approximate
Thu 05:19:00 AM 59.8665 30.0631 311° West  Level FlightAware Approximate
Thu 05:20:00 AM 59.9458 29.8802 311° West  Level FlightAware Approximate
Thu 05:21:00 AM 60.0248 29.6965 311° West  Level FlightAware Approximate
Thu 05:22:00 AM 60.1036 29.5118 311° West  Level FlightAware Approximate
Thu 05:23:00 AM 60.1822 29.3263 310° West  Level FlightAware Approximate
Thu 05:24:00 AM 60.2605 29.1399 310° West  Level FlightAware Approximate
Thu 05:25:00 AM 60.3385 28.9526 310° West  Level FlightAware Approximate
Thu 05:26:00 AM 60.4162 28.7644 310° West  Level FlightAware Approximate
Thu 05:27:00 AM 60.4937 28.5753 310° West  Level FlightAware Approximate
Thu 05:28:00 AM 60.5709 28.3853 310° West  Level FlightAware Approximate
Thu 05:29:00 AM 60.6479 28.1944 309° West  Level FlightAware Approximate
Thu 05:30:00 AM 60.7246 28.0026 309° West  Level FlightAware Approximate
Thu 05:31:00 AM 60.8010 27.8098 309° West  Level FlightAware Approximate
Thu 05:32:00 AM 60.8771 27.6162 309° West  Level FlightAware Approximate
Thu 05:33:00 AM 60.9529 27.4216 309° West  Level FlightAware Approximate
Thu 05:34:00 AM 61.0285 27.2261 309° West  Level FlightAware Approximate
Thu 05:35:00 AM 61.1038 27.0296 308° West  Level FlightAware Approximate
Thu 05:36:00 AM 61.1787 26.8323 308° West  Level FlightAware Approximate
Thu 05:37:00 AM 61.2534 26.6339 308° West  Level FlightAware Approximate
Thu 05:38:00 AM 61.3279 26.4347 308° West  Level FlightAware Approximate
Thu 05:39:00 AM 61.4020 26.2345 308° West  Level FlightAware Approximate
Thu 05:40:00 AM 61.4758 26.0333 308° West  Level FlightAware Approximate
Thu 05:41:00 AM 61.5493 25.8312 307° West  Level FlightAware Approximate
Thu 05:42:00 AM 61.6225 25.6281 307° West  Level FlightAware Approximate
Thu 05:43:00 AM 61.6955 25.4241 307° West  Level FlightAware Approximate
Thu 05:44:00 AM 61.7681 25.2191 307° West  Level FlightAware Approximate
Thu 05:45:00 AM 61.8404 25.0131 307° West  Level FlightAware Approximate
Thu 05:46:00 AM 61.9124 24.8062 307° West  Level FlightAware Approximate
Thu 05:47:00 AM 61.9841 24.5983 306° West  Level FlightAware Approximate
Thu 05:48:00 AM 62.0555 24.3894 306° West  Level FlightAware Approximate
Thu 05:49:00 AM 62.1265 24.1795 306° West  Level FlightAware Approximate
Thu 05:50:00 AM 62.1973 23.9687 306° West  Level FlightAware Approximate
Thu 05:51:00 AM 62.2677 23.7568 306° West  Level FlightAware Approximate
Thu 05:52:00 AM 62.3378 23.5440 305° West  Level FlightAware Approximate
Thu 05:53:00 AM 62.4075 23.3302 305° West  Level FlightAware Approximate
Thu 05:54:00 AM 62.4770 23.1154 305° West  Level FlightAware Approximate
Thu 05:55:00 AM 62.5461 22.8995 305° West  Level FlightAware Approximate
Thu 05:56:00 AM 62.6148 22.6827 305° West  Level FlightAware Approximate
Thu 05:57:00 AM 62.6833 22.4649 304° West  Level FlightAware Approximate
Thu 05:58:00 AM 62.7514 22.2461 304° West  Level FlightAware Approximate
Thu 05:59:00 AM 62.8191 22.0262 304° West  Level FlightAware Approximate
Thu 06:00:00 AM 62.8865 21.8054 304° West  Level FlightAware Approximate
Thu 06:01:00 AM 62.9536 21.5835 304° West  Level FlightAware Approximate
Thu 06:02:00 AM 63.0203 21.3606 303° West  Level FlightAware Approximate
Thu 06:03:00 AM 63.0866 21.1367 303° West  Level FlightAware Approximate
Thu 06:04:00 AM 63.1526 20.9118 303° West  Level FlightAware Approximate
Thu 06:05:00 AM 63.2183 20.6858 303° West  Level FlightAware Approximate
Thu 06:06:00 AM 63.2836 20.4588 303° West  Level FlightAware Approximate
Thu 06:07:00 AM 63.3485 20.2308 302° West  Level FlightAware Approximate
Thu 06:08:00 AM 63.4136 20.0026 303° West  Level FlightAware Approximate
Thu 06:09:00 AM 63.4785 19.7736 302° West  Level FlightAware Approximate
Thu 06:10:00 AM 63.5431 19.5435 302° West  Level FlightAware Approximate
Thu 06:11:00 AM 63.6073 19.3124 302° West  Level FlightAware Approximate
Thu 06:12:00 AM 63.6711 19.0803 302° West  Level FlightAware Approximate
Thu 06:13:00 AM 63.7346 18.8471 302° West  Level FlightAware Approximate
Thu 06:14:00 AM 63.7977 18.6129 301° West  Level FlightAware Approximate
Thu 06:15:00 AM 63.8603 18.3774 301° West  Level FlightAware Approximate
Thu 06:16:00 AM 63.9219 18.1402 301° West  Level FlightAware Approximate
Thu 06:17:00 AM 63.9832 17.9020 300° West  Level FlightAware Approximate
Thu 06:18:00 AM 64.0441 17.6627 300° West  Level FlightAware Approximate
Thu 06:19:00 AM 64.1046 17.4224 300° West  Level FlightAware Approximate
Thu 06:20:00 AM 64.1647 17.1811 300° West  Level FlightAware Approximate
Thu 06:21:00 AM 64.2244 16.9387 300° West  Level FlightAware Approximate
Thu 06:22:00 AM 64.2837 16.6952 299° West  Level FlightAware Approximate
Thu 06:23:00 AM 64.3425 16.4507 299° West  Level FlightAware Approximate
Thu 06:24:00 AM 64.4010 16.2052 299° West  Level FlightAware Approximate
Thu 06:25:00 AM 64.4591 15.9586 299° West  Level FlightAware Approximate
Thu 06:26:00 AM 64.5167 15.7109 299° West  Level FlightAware Approximate
Thu 06:27:00 AM 64.5740 15.4623 298° West  Level FlightAware Approximate
Thu 06:28:00 AM 64.6308 15.2125 298° West  Level FlightAware Approximate
Thu 06:29:00 AM 64.6872 14.9618 298° West  Level FlightAware Approximate
Thu 06:30:00 AM 64.7431 14.7100 298° West  Level FlightAware Approximate
Thu 06:31:00 AM 64.7987 14.4571 297° West  Level FlightAware Approximate
Thu 06:32:00 AM 64.8538 14.2033 297° West  Level FlightAware Approximate
Thu 06:33:00 AM 64.9084 13.9483 297° West  Level FlightAware Approximate
Thu 06:34:00 AM 64.9626 13.6924 297° West  Level FlightAware Approximate
Thu 06:35:00 AM 65.0164 13.4354 296° West  Level FlightAware Approximate
Thu 06:36:00 AM 65.0698 13.1774 296° West  Level FlightAware Approximate
Thu 06:37:00 AM 65.1227 12.9183 296° West  Level FlightAware Approximate
Thu 06:38:00 AM 65.1750 12.6580 295° West  Level FlightAware Approximate
Thu 06:39:00 AM 65.2266 12.3965 295° West  Level FlightAware Approximate
Thu 06:40:00 AM 65.2778 12.1339 295° West  Level FlightAware Approximate
Thu 06:41:00 AM 65.3285 11.8703 295° West  Level FlightAware Approximate
Thu 06:42:00 AM 65.3787 11.6058 295° West  Level FlightAware Approximate
Thu 06:43:00 AM 65.4285 11.3402 294° West  Level FlightAware Approximate
Thu 06:44:00 AM 65.4779 11.0736 294° West  Level FlightAware Approximate
Thu 06:45:00 AM 65.5267 10.8060 294° West  Level FlightAware Approximate
Thu 06:46:00 AM 65.5751 10.5374 294° West  Level FlightAware Approximate
Thu 06:47:00 AM 65.6230 10.2678 293° West  Level FlightAware Approximate
Thu 06:48:00 AM 65.6704 9.9972 293° West  Level FlightAware Approximate
Thu 06:49:00 AM 65.7173 9.7256 293° West  Level FlightAware Approximate
Thu 06:50:00 AM 65.7638 9.4530 293° West  Level FlightAware Approximate
Thu 06:51:00 AM 65.8098 9.1795 292° West  Level FlightAware Approximate
Thu 06:52:00 AM 65.8552 8.9050 292° West  Level FlightAware Approximate
Thu 06:53:00 AM 65.9004 8.6297 292° West  Level FlightAware Approximate
Thu 06:54:00 AM 65.9452 8.3536 292° West  Level FlightAware Approximate
Thu 06:55:00 AM 65.9896 8.0765 292° West  Level FlightAware Approximate
Thu 06:56:00 AM 66.0334 7.7985 291° West  Level FlightAware Approximate
Thu 06:57:00 AM 66.0768 7.5196 291° West  Level FlightAware Approximate
Thu 06:58:00 AM 66.1197 7.2397 291° West  Level FlightAware Approximate
Thu 06:59:00 AM 66.1620 6.9588 291° West  Level FlightAware Approximate
Thu 07:00:00 AM 66.2039 6.6770 290° West  Level FlightAware Approximate
Thu 07:01:00 AM 66.2452 6.3943 290° West  Level FlightAware Approximate
Thu 07:02:00 AM 66.2860 6.1107 290° West  Level FlightAware Approximate
Thu 07:03:00 AM 66.3263 5.8261 290° West  Level FlightAware Approximate
Thu 07:04:00 AM 66.3661 5.5407 289° West  Level FlightAware Approximate
Thu 07:05:00 AM 66.4053 5.2543 289° West  Level FlightAware Approximate
Thu 07:06:00 AM 66.4440 4.9671 289° West  Level FlightAware Approximate
Thu 07:07:00 AM 66.4822 4.6789 288° West  Level FlightAware Approximate
Thu 07:08:00 AM 66.5199 4.3899 288° West  Level FlightAware Approximate
Thu 07:09:00 AM 66.5570 4.1000 288° West  Level FlightAware Approximate
Thu 07:10:00 AM 66.5936 3.8093 288° West  Level FlightAware Approximate
Thu 07:11:00 AM 66.6297 3.5177 287° West  Level FlightAware Approximate
Thu 07:12:00 AM 66.6652 3.2252 287° West  Level FlightAware Approximate
Thu 07:13:00 AM 66.7001 2.9319 287° West  Level FlightAware Approximate
Thu 07:14:00 AM 66.7346 2.6378 287° West  Level FlightAware Approximate
Thu 07:15:00 AM 66.7684 2.3429 286° West  Level FlightAware Approximate
Thu 07:16:00 AM 66.8017 2.0472 286° West  Level FlightAware Approximate
Thu 07:17:00 AM 66.8345 1.7506 286° West  Level FlightAware Approximate
Thu 07:18:00 AM 66.8667 1.4533 286° West  Level FlightAware Approximate
Thu 07:19:00 AM 66.8984 1.1552 285° West  Level FlightAware Approximate
Thu 07:20:00 AM 66.9295 0.8564 285° West  Level FlightAware Approximate
Thu 07:21:00 AM 66.9600 0.5568 285° West  Level FlightAware Approximate
Thu 07:22:00 AM 66.9899 0.2564 284° West  Level FlightAware Approximate
Thu 07:23:00 AM 67.0193 -0.0447 284° West  Level FlightAware Approximate
Thu 07:24:00 AM 67.0481 -0.3465 284° West  Level FlightAware Approximate
Thu 07:25:00 AM 67.0764 -0.6490 284° West  Level FlightAware Approximate
Thu 07:26:00 AM 67.1041 -0.9522 283° West  Level FlightAware Approximate
Thu 07:27:00 AM 67.1312 -1.2561 283° West  Level FlightAware Approximate
Thu 07:28:00 AM 67.1577 -1.5607 283° West  Level FlightAware Approximate
Thu 07:29:00 AM 67.1836 -1.8660 282° West  Level FlightAware Approximate
Thu 07:30:00 AM 67.2090 -2.1719 282° West  Level FlightAware Approximate
Thu 07:31:00 AM 67.2337 -2.4784 282° West  Level FlightAware Approximate
Thu 07:32:00 AM 67.2579 -2.7856 282° West  Level FlightAware Approximate
Thu 07:33:00 AM 67.2815 -3.0933 281° West  Level FlightAware Approximate
Thu 07:34:00 AM 67.3045 -3.4017 281° West  Level FlightAware Approximate
Thu 07:35:00 AM 67.3269 -3.7106 281° West  Level FlightAware Approximate
Thu 07:36:00 AM 67.3487 -4.0202 281° West  Level FlightAware Approximate
Thu 07:37:00 AM 67.3700 -4.3303 280° West  Level FlightAware Approximate
Thu 07:38:00 AM 67.3906 -4.6409 280° West  Level FlightAware Approximate
Thu 07:39:00 AM 67.4106 -4.9521 280° West  Level FlightAware Approximate
Thu 07:40:00 AM 67.4301 -5.2637 279° West  Level FlightAware Approximate
Thu 07:41:00 AM 67.4489 -5.5759 279° West  Level FlightAware Approximate
Thu 07:42:00 AM 67.4671 -5.8885 279° West  Level FlightAware Approximate
Thu 07:43:00 AM 67.4847 -6.2017 278° West  Level FlightAware Approximate
Thu 07:44:00 AM 67.5017 -6.5153 278° West  Level FlightAware Approximate
Thu 07:45:00 AM 67.5181 -6.8293 278° West  Level FlightAware Approximate
Thu 07:46:00 AM 67.5339 -7.1438 278° West  Level FlightAware Approximate
Thu 07:47:00 AM 67.5491 -7.4586 277° West  Level FlightAware Approximate
Thu 07:48:00 AM 67.5637 -7.7739 277° West  Level FlightAware Approximate
Thu 07:49:00 AM 67.5776 -8.0895 277° West  Level FlightAware Approximate
Thu 07:50:00 AM 67.5910 -8.4055 276° West  Level FlightAware Approximate
Thu 07:51:00 AM 67.6037 -8.7219 276° West  Level FlightAware Approximate
Thu 07:52:00 AM 67.6158 -9.0386 276° West  Level FlightAware Approximate
Thu 07:53:00 AM 67.6273 -9.3556 276° West  Level FlightAware Approximate
Thu 07:54:00 AM 67.6382 -9.6729 275° West  Level FlightAware Approximate
Thu 07:55:00 AM 67.6485 -9.9905 275° West  Level FlightAware Approximate
Thu 07:56:00 AM 67.6581 -10.3084 275° West  Level FlightAware Approximate
Thu 07:57:00 AM 67.6671 -10.6265 274° West  Level FlightAware Approximate
Thu 07:58:00 AM 67.6755 -10.9448 274° West  Level FlightAware Approximate
Thu 07:59:00 AM 67.6833 -11.2634 274° West  Level FlightAware Approximate
Thu 08:00:00 AM 67.6905 -11.5822 274° West  Level FlightAware Approximate
Thu 08:01:00 AM 67.6970 -11.9011 273° West  Level FlightAware Approximate
Thu 08:02:00 AM 67.7029 -12.2203 273° West  Level FlightAware Approximate
Thu 08:03:00 AM 67.7082 -12.5395 273° West  Level FlightAware Approximate
Thu 08:04:00 AM 67.7129 -12.8589 272° West  Level FlightAware Approximate
Thu 08:05:00 AM 67.7169 -13.1785 272° West  Level FlightAware Approximate
Thu 08:06:00 AM 67.7203 -13.4981 272° West  Level FlightAware Approximate
Thu 08:07:00 AM 67.7231 -13.8178 271° West  Level FlightAware Approximate
Thu 08:08:00 AM 67.7252 -14.1376 271° West  Level FlightAware Approximate
Thu 08:09:00 AM 67.7268 -14.4574 271° West  Level FlightAware Approximate
Thu 08:10:00 AM 67.7277 -14.7773 271° West  Level FlightAware Approximate
Thu 08:11:00 AM 67.7280 -15.0972 270° West  Level FlightAware Approximate
Thu 08:12:00 AM 67.7276 -15.4171 270° West  Level FlightAware Approximate
Thu 08:13:00 AM 67.7266 -15.7369 270° West  Level FlightAware Approximate
Thu 08:14:00 AM 67.7250 -16.0568 269° West  Level FlightAware Approximate
Thu 08:15:00 AM 67.7228 -16.3765 269° West  Level FlightAware Approximate
Thu 08:16:00 AM 67.7200 -16.6963 269° West  Level FlightAware Approximate
Thu 08:17:00 AM 67.7165 -17.0159 268° West  Level FlightAware Approximate
Thu 08:18:00 AM 67.7122 -17.3354 268° West  Level FlightAware Approximate
Thu 08:19:00 AM 67.7074 -17.6548 268° West  Level FlightAware Approximate
Thu 08:20:00 AM 67.7019 -17.9740 268° West  Level FlightAware Approximate
Thu 08:21:00 AM 67.6957 -18.2931 267° West  Level FlightAware Approximate
Thu 08:22:00 AM 67.6890 -18.6120 267° West  Level FlightAware Approximate
Thu 08:23:00 AM 67.6816 -18.9307 267° West  Level FlightAware Approximate
Thu 08:24:00 AM 67.6736 -19.2492 266° West  Level FlightAware Approximate
Thu 08:25:00 AM 67.6650 -19.5675 266° West  Level FlightAware Approximate
Thu 08:26:00 AM 67.6558 -19.8856 266° West  Level FlightAware Approximate
Thu 08:27:00 AM 67.6459 -20.2034 265° West  Level FlightAware Approximate
Thu 08:28:00 AM 67.6355 -20.5209 265° West  Level FlightAware Approximate
Thu 08:29:00 AM 67.6244 -20.8381 265° West  Level FlightAware Approximate
Thu 08:30:00 AM 67.6127 -21.1550 265° West  Level FlightAware Approximate
Thu 08:31:00 AM 67.6003 -21.4716 264° West  Level FlightAware Approximate
Thu 08:32:00 AM 67.5874 -21.7878 264° West  Level FlightAware Approximate
Thu 08:33:00 AM 67.5738 -22.1037 264° West  Level FlightAware Approximate
Thu 08:34:00 AM 67.5597 -22.4193 263° West  Level FlightAware Approximate
Thu 08:35:00 AM 67.5449 -22.7344 263° West  Level FlightAware Approximate
Thu 08:36:00 AM 67.5295 -23.0491 263° West  Level FlightAware Approximate
Thu 08:37:00 AM 67.5135 -23.3635 263° West  Level FlightAware Approximate
Thu 08:38:00 AM 67.4969 -23.6773 262° West  Level FlightAware Approximate
Thu 08:39:00 AM 67.4797 -23.9908 262° West  Level FlightAware Approximate
Thu 08:40:00 AM 67.4619 -24.3038 262° West  Level FlightAware Approximate
Thu 08:41:00 AM 67.4434 -24.6163 261° West  Level FlightAware Approximate
Thu 08:42:00 AM 67.4244 -24.9283 261° West  Level FlightAware Approximate
Thu 08:43:00 AM 67.4048 -25.2398 261° West  Level FlightAware Approximate
Thu 08:44:00 AM 67.3845 -25.5508 261° West  Level FlightAware Approximate
Thu 08:45:00 AM 67.3637 -25.8613 260° West  Level FlightAware Approximate
Thu 08:46:00 AM 67.3423 -26.1712 260° West  Level FlightAware Approximate
Thu 08:47:00 AM 67.3203 -26.4805 260° West  Level FlightAware Approximate
Thu 08:48:00 AM 67.2976 -26.7893 259° West  Level FlightAware Approximate
Thu 08:49:00 AM 67.2744 -27.0975 259° West  Level FlightAware Approximate
Thu 08:50:00 AM 67.2506 -27.4050 259° West  Level FlightAware Approximate
Thu 08:51:00 AM 67.2262 -27.7120 259° West  Level FlightAware Approximate
Thu 08:52:00 AM 67.2013 -28.0183 258° West  Level FlightAware Approximate
Thu 08:53:00 AM 67.1757 -28.3240 258° West  Level FlightAware Approximate
Thu 08:54:00 AM 67.1496 -28.6290 258° West  Level FlightAware Approximate
Thu 08:55:00 AM 67.1229 -28.9334 257° West  Level FlightAware Approximate
Thu 08:56:00 AM 67.0956 -29.2371 257° West  Level FlightAware Approximate
Thu 08:57:00 AM 67.0677 -29.5401 257° West  Level FlightAware Approximate
Thu 08:58:00 AM 67.0393 -29.8424 257° West  Level FlightAware Approximate
Thu 08:59:00 AM 67.0103 -30.1440 256° West  Level FlightAware Approximate
Thu 09:00:00 AM 66.9807 -30.4448 256° West  Level FlightAware Approximate
Thu 09:01:00 AM 66.9505 -30.7449 256° West  Level FlightAware Approximate
Thu 09:02:00 AM 66.9198 -31.0443 255° West  Level FlightAware Approximate
Thu 09:03:00 AM 66.8885 -31.3429 255° West  Level FlightAware Approximate
Thu 09:04:00 AM 66.8567 -31.6408 255° West  Level FlightAware Approximate
Thu 09:05:00 AM 66.8243 -31.9378 255° West  Level FlightAware Approximate
Thu 09:06:00 AM 66.7913 -32.2341 254° West  Level FlightAware Approximate
Thu 09:07:00 AM 66.7578 -32.5295 254° West  Level FlightAware Approximate
Thu 09:08:00 AM 66.7238 -32.8242 254° West  Level FlightAware Approximate
Thu 09:09:00 AM 66.6892 -33.1180 254° West  Level FlightAware Approximate
Thu 09:10:00 AM 66.6540 -33.4111 253° West  Level FlightAware Approximate
Thu 09:11:00 AM 66.6183 -33.7032 253° West  Level FlightAware Approximate
Thu 09:12:00 AM 66.5815 -33.9941 252° West  Level FlightAware Approximate
Thu 09:13:00 AM 66.5441 -34.2840 252° West  Level FlightAware Approximate
Thu 09:14:00 AM 66.5062 -34.5731 252° West  Level FlightAware Approximate
Thu 09:15:00 AM 66.4678 -34.8613 252° West  Level FlightAware Approximate
Thu 09:16:00 AM 66.4288 -35.1487 251° West  Level FlightAware Approximate
Thu 09:17:00 AM 66.3893 -35.4351 251° West  Level FlightAware Approximate
Thu 09:18:00 AM 66.3493 -35.7206 251° West  Level FlightAware Approximate
Thu 09:19:00 AM 66.3089 -36.0053 251° West  Level FlightAware Approximate
Thu 09:20:00 AM 66.2686 -36.2896 251° West  Level FlightAware Approximate
Thu 09:21:00 AM 66.2278 -36.5731 250° West  Level FlightAware Approximate
Thu 09:22:00 AM 66.1865 -36.8556 250° West  Level FlightAware Approximate
Thu 09:23:00 AM 66.1446 -37.1372 250° West  Level FlightAware Approximate
Thu 09:24:00 AM 66.1023 -37.4178 250° West  Level FlightAware Approximate
Thu 09:25:00 AM 66.0594 -37.6976 249° West  Level FlightAware Approximate
Thu 09:26:00 AM 66.0160 -37.9763 249° West  Level FlightAware Approximate
Thu 09:27:00 AM 65.9722 -38.2541 249° West  Level FlightAware Approximate
Thu 09:28:00 AM 65.9278 -38.5310 249° West  Level FlightAware Approximate
Thu 09:29:00 AM 65.8829 -38.8069 248° West  Level FlightAware Approximate
Thu 09:30:00 AM 65.8376 -39.0818 248° West  Level FlightAware Approximate
Thu 09:31:00 AM 65.7917 -39.3558 248° West  Level FlightAware Approximate
Thu 09:32:00 AM 65.7454 -39.6287 248° West  Level FlightAware Approximate
Thu 09:33:00 AM 65.6986 -39.9007 247° West  Level FlightAware Approximate
Thu 09:34:00 AM 65.6513 -40.1717 247° West  Level FlightAware Approximate
Thu 09:35:00 AM 65.6035 -40.4417 247° West  Level FlightAware Approximate
Thu 09:36:00 AM 65.5552 -40.7107 247° West  Level FlightAware Approximate
Thu 09:37:00 AM 65.5065 -40.9787 246° West  Level FlightAware Approximate
Thu 09:38:00 AM 65.4573 -41.2458 246° West  Level FlightAware Approximate
Thu 09:39:00 AM 65.4076 -41.5118 246° West  Level FlightAware Approximate
Thu 09:40:00 AM 65.3575 -41.7767 246° West  Level FlightAware Approximate
Thu 09:41:00 AM 65.3069 -42.0407 245° Southwest  Level FlightAware Approximate
Thu 09:42:00 AM 65.2558 -42.3037 245° Southwest  Level FlightAware Approximate
Thu 09:43:00 AM 65.2043 -42.5656 245° Southwest  Level FlightAware Approximate
Thu 09:44:00 AM 65.1523 -42.8265 245° Southwest  Level FlightAware Approximate
Thu 09:45:00 AM 65.0999 -43.0864 244° Southwest  Level FlightAware Approximate
Thu 09:46:00 AM 65.0470 -43.3453 244° Southwest  Level FlightAware Approximate
Thu 09:47:00 AM 64.9937 -43.6031 244° Southwest  Level FlightAware Approximate
Thu 09:48:00 AM 64.9399 -43.8600 244° Southwest  Level FlightAware Approximate
Thu 09:49:00 AM 64.8857 -44.1157 244° Southwest  Level FlightAware Approximate
Thu 09:50:00 AM 64.8311 -44.3705 243° Southwest  Level FlightAware Approximate
Thu 09:51:00 AM 64.7760 -44.6242 243° Southwest  Level FlightAware Approximate
Thu 09:52:00 AM 64.7205 -44.8768 243° Southwest  Level FlightAware Approximate
Thu 09:53:00 AM 64.6646 -45.1285 243° Southwest  Level FlightAware Approximate
Thu 09:54:00 AM 64.6082 -45.3791 242° Southwest  Level FlightAware Approximate
Thu 09:55:00 AM 64.5514 -45.6286 242° Southwest  Level FlightAware Approximate
Thu 09:56:00 AM 64.4942 -45.8771 242° Southwest  Level FlightAware Approximate
Thu 09:57:00 AM 64.4366 -46.1246 242° Southwest  Level FlightAware Approximate
Thu 09:58:00 AM 64.3786 -46.3710 242° Southwest  Level FlightAware Approximate
Thu 09:59:00 AM 64.3201 -46.6164 241° Southwest  Level FlightAware Approximate
Thu 10:00:00 AM 64.2613 -46.8607 241° Southwest  Level FlightAware Approximate
Thu 10:01:00 AM 64.2020 -47.1040 241° Southwest  Level FlightAware Approximate
Thu 10:02:00 AM 64.1424 -47.3463 241° Southwest  Level FlightAware Approximate
Thu 10:03:00 AM 64.0823 -47.5875 240° Southwest  Level FlightAware Approximate
Thu 10:04:00 AM 64.0219 -47.8277 240° Southwest  Level FlightAware Approximate
Thu 10:05:00 AM 63.9610 -48.0668 240° Southwest  Level FlightAware Approximate
Thu 10:06:00 AM 63.8997 -48.3049 240° Southwest  Level FlightAware Approximate
Thu 10:07:00 AM 63.8381 -48.5419 240° Southwest  Level FlightAware Approximate
Thu 10:08:00 AM 63.7761 -48.7779 239° Southwest  Level FlightAware Approximate
Thu 10:09:00 AM 63.7137 -49.0129 239° Southwest  Level FlightAware Approximate
Thu 10:10:00 AM 63.6509 -49.2468 239° Southwest  Level FlightAware Approximate
Thu 10:11:00 AM 63.5877 -49.4797 239° Southwest  Level FlightAware Approximate
Thu 10:12:00 AM 63.5242 -49.7116 238° Southwest  Level FlightAware Approximate
Thu 10:13:00 AM 63.4603 -49.9424 238° Southwest  Level FlightAware Approximate
Thu 10:14:00 AM 63.3960 -50.1722 238° Southwest  Level FlightAware Approximate
Thu 10:15:00 AM 63.3313 -50.4010 238° Southwest  Level FlightAware Approximate
Thu 10:16:00 AM 63.2663 -50.6287 238° Southwest  Level FlightAware Approximate
Thu 10:17:00 AM 63.2009 -50.8554 237° Southwest  Level FlightAware Approximate
Thu 10:18:00 AM 63.1352 -51.0811 237° Southwest  Level FlightAware Approximate
Thu 10:19:00 AM 63.0691 -51.3058 237° Southwest  Level FlightAware Approximate
Thu 10:20:00 AM 63.0027 -51.5294 237° Southwest  Level FlightAware Approximate
Thu 10:21:00 AM 62.9358 -51.7521 237° Southwest  Level FlightAware Approximate
Thu 10:22:00 AM 62.8687 -51.9737 236° Southwest  Level FlightAware Approximate
Thu 10:23:00 AM 62.8012 -52.1943 236° Southwest  Level FlightAware Approximate
Thu 10:24:00 AM 62.7334 -52.4139 236° Southwest  Level FlightAware Approximate
Thu 10:25:00 AM 62.6652 -52.6324 236° Southwest  Level FlightAware Approximate
Thu 10:26:00 AM 62.5967 -52.8500 236° Southwest  Level FlightAware Approximate
Thu 10:27:00 AM 62.5278 -53.0666 235° Southwest  Level FlightAware Approximate
Thu 10:28:00 AM 62.4586 -53.2821 235° Southwest  Level FlightAware Approximate
Thu 10:29:00 AM 62.3891 -53.4967 235° Southwest  Level FlightAware Approximate
Thu 10:30:00 AM 62.3193 -53.7103 235° Southwest  Level FlightAware Approximate
Thu 10:31:00 AM 62.2491 -53.9228 235° Southwest  Level FlightAware Approximate
Thu 10:32:00 AM 62.1786 -54.1344 235° Southwest  Level FlightAware Approximate
Thu 10:33:00 AM 62.1078 -54.3450 234° Southwest  Level FlightAware Approximate
Thu 10:34:00 AM 62.0366 -54.5546 234° Southwest  Level FlightAware Approximate
Thu 10:34:14 AM 63.4667 -55.7167 218° Southwest 460 529 36,000  Level Gander Center
Thu 10:35:00 AM 61.9652 -54.7633 234° Southwest  Level FlightAware Approximate
Thu 10:35:14 AM 63.3833 -55.9667 233° Southwest 460 529 36,000  Level Gander Center
Thu 10:36:00 AM 61.8698 -54.9243 219° Southwest  Level Estimated
Thu 10:36:14 AM 63.3000 -56.2000 232° Southwest 470 541 36,000  Level Gander Center
Thu 10:37:00 AM 61.7742 -55.0843 218° Southwest  Level Estimated
Thu 10:37:14 AM 63.2333 -56.4333 238° Southwest 470 541 36,000  Level Gander Center
Thu 10:38:00 AM 61.6785 -55.2433 218° Southwest  Level Estimated
Thu 10:38:14 AM 63.1500 -56.6667 232° Southwest 470 541 36,000  Level Gander Center
Thu 10:39:00 AM 61.5826 -55.4012 218° Southwest  Level Estimated
Thu 10:39:14 AM 63.0833 -56.8833 236° Southwest 480 552 36,000  Level Gander Center
Thu 10:40:14 AM 63.0000 -57.1667 237° Southwest 480 552 36,000  Level Gander Center
Thu 10:41:14 AM 62.9167 -57.3833 230° Southwest 480 552 36,000  Level Gander Center
Thu 10:42:14 AM 62.8500 -57.6167 238° Southwest 480 552 36,000  Level Gander Center
Thu 10:43:14 AM 62.7667 -57.8500 232° Southwest 480 552 36,000  Level Gander Center
Thu 10:44:14 AM 62.6833 -58.1000 234° Southwest 480 552 36,000  Level Gander Center
Thu 10:45:14 AM 62.6167 -58.3333 238° Southwest 480 552 36,000  Level Gander Center
Thu 10:46:14 AM 62.5333 -58.5500 230° Southwest 480 552 36,000  Level Gander Center
Thu 10:47:14 AM 62.4500 -58.7667 230° Southwest 480 552 36,000  Level Gander Center
Thu 10:48:14 AM 62.3667 -59.0000 232° Southwest 480 552 36,000  Level Gander Center
Thu 10:49:14 AM 62.3000 -59.2167 237° Southwest 480 552 36,000  Level Gander Center
Thu 10:50:14 AM 62.2167 -59.4667 235° Southwest 480 552 36,000  Level Gander Center
Thu 10:51:14 AM 62.1333 -59.6833 231° Southwest 480 552 36,000  Level Gander Center
Thu 10:52:14 AM 62.0500 -59.9000 231° Southwest 470 541 36,000  Level Gander Center
Thu 10:53:14 AM 61.9500 -60.0833 221° Southwest 460 529 36,000  Level Gander Center
Thu 10:54:14 AM 61.8500 -60.2667 221° Southwest 460 529 36,000  Level Gander Center
Thu 10:55:14 AM 61.7833 -60.4333 230° Southwest 460 529 36,000  Level Gander Center
Thu 10:56:14 AM 61.6833 -60.6167 221° Southwest 450 518 36,000  Level Gander Center
Thu 10:57:14 AM 61.5833 -60.8000 221° Southwest 450 518 36,000  Level Gander Center
Thu 10:58:14 AM 61.4833 -60.9667 219° Southwest 460 529 36,000  Level Gander Center
Thu 10:59:14 AM 61.4000 -61.1500 227° Southwest 450 518 36,000  Level Gander Center
Thu 11:00:14 AM 61.3000 -61.2833 213° Southwest 460 529 36,000  Level Gander Center
Thu 11:01:14 AM 61.2000 -61.4500 219° Southwest 460 529 36,000  Level Gander Center
Thu 11:02:14 AM 61.1000 -61.6333 222° Southwest 460 529 36,000  Level Gander Center
Thu 11:03:14 AM 61.0167 -61.8000 224° Southwest 450 518 36,000  Level Gander Center
Thu 11:04:14 AM 60.9167 -61.9667 219° Southwest 450 518 36,000  Level Gander Center
Thu 11:05:14 AM 60.8167 -62.1000 213° Southwest 450 518 36,000  Level Gander Center
Thu 11:06:14 AM 60.7167 -62.3000 224° Southwest 450 518 36,000  Level Gander Center
Thu 11:07:14 AM 60.6333 -62.5333 234° Southwest 460 529 36,000  Level Gander Center
Thu 11:08:14 AM 60.5500 -62.7667 234° Southwest 470 541 36,000  Level Gander Center
Thu 11:09:14 AM 60.5167 -63.0333 256° West 480 552 36,000  Level Gander Center
Thu 11:10:14 AM 60.4667 -63.2667 247° West 480 552 36,000  Level Gander Center
Thu 11:11:14 AM 60.4167 -63.5000 247° West 480 552 36,000  Level Gander Center
Thu 11:12:14 AM 60.3833 -63.7667 256° West 480 552 36,000  Level Gander Center
Thu 11:13:14 AM 60.3167 -64.0000 240° Southwest 480 552 36,000  Level Gander Center
Thu 11:14:14 AM 60.2667 -64.2667 249° West 470 541 36,000  Level Gander Center
Thu 11:15:14 AM 60.2333 -64.5000 254° West 480 552 36,000  Level Gander Center
Thu 11:16:14 AM 60.1833 -64.7333 247° West 470 541 36,000  Level Gander Center
Thu 11:17:14 AM 60.1333 -64.9833 248° West 470 541 36,000  Level Gander Center
Thu 11:18:14 AM 60.0667 -65.1833 236° Southwest 460 529 36,000  Level Gander Center
Thu 11:19:14 AM 59.9667 -65.3667 223° Southwest 460 529 36,000  Level Gander Center
Thu 11:20:14 AM 59.8667 -65.5667 225° Southwest 450 518 36,000  Level Gander Center
Thu 11:21:14 AM 59.7833 -65.7167 222° Southwest 450 518 36,000  Level Gander Center
Thu 11:22:14 AM 59.6833 -65.9000 223° Southwest 450 518 36,000  Level Gander Center
Thu 11:23:14 AM 59.5833 -66.0500 217° Southwest 450 518 36,000  Level Gander Center
Thu 11:24:14 AM 59.5000 -66.2000 222° Southwest 450 518 36,000  Level Gander Center
Thu 11:25:14 AM 59.4000 -66.3833 223° Southwest 450 518 36,000  Level Gander Center
Thu 11:26:25 AM 59.3000 -66.5000 211° Southwest 450 518 36,000  Level Montreal Center
Thu 11:27:25 AM 59.2000 -66.6500 218° Southwest 450 518 36,000  Level Montreal Center
Thu 11:28:25 AM 59.1000 -66.8167 221° Southwest 450 518 36,000  Level Montreal Center
Thu 11:29:25 AM 59.0000 -66.9667 218° Southwest 450 518 36,000  Level Montreal Center
Thu 11:30:25 AM 58.9000 -67.1333 221° Southwest 450 518 36,000  Level Montreal Center
Thu 11:31:14 AM 58.8333 -67.3000 232° Southwest 450 518 36,000  Level Gander Center
Thu 11:32:14 AM 58.7333 -67.4500 218° Southwest 450 518 36,000  Level Gander Center
Thu 11:33:14 AM 58.6333 -67.6333 224° Southwest 450 518 36,000  Level Gander Center
Thu 11:34:14 AM 58.5333 -67.7667 215° Southwest 450 518 36,000  Level Gander Center
Thu 11:35:14 AM 58.4333 -67.9500 224° Southwest 460 529 36,000  Level Gander Center
Thu 11:36:14 AM 58.3500 -68.0833 220° Southwest 450 518 36,000  Level Gander Center
Thu 11:37:14 AM 58.2333 -68.2167 211° Southwest 460 529 36,000  Level Gander Center
Thu 11:38:14 AM 58.1500 -68.4000 229° Southwest 470 541 36,000  Level Gander Center
Thu 11:39:32 AM 58.0167 -68.5667 214° Southwest 460 529 36,000  Level Gander Center
Thu 11:40:32 AM 57.9333 -68.7000 220° Southwest 450 518 36,000  Level Gander Center
Thu 11:41:32 AM 57.8167 -68.8333 211° Southwest 450 518 36,000  Level Gander Center
Thu 11:42:32 AM 57.7333 -68.9833 224° Southwest 450 518 36,000  Level Gander Center
Thu 11:43:32 AM 57.6167 -69.1167 211° Southwest 450 518 36,000  Level Gander Center
Thu 11:44:32 AM 57.5167 -69.2500 216° Southwest 450 518 36,000  Level Gander Center
Thu 11:45:32 AM 57.4000 -69.3833 212° Southwest 450 518 36,000  Level Gander Center
Thu 11:46:32 AM 57.3167 -69.5167 221° Southwest 450 518 36,000  Level Gander Center
Thu 11:47:32 AM 57.2000 -69.6333 208° Southwest 450 518 36,000  Level Gander Center
Thu 11:48:32 AM 57.1167 -69.7833 224° Southwest 450 518 36,000  Level Gander Center
Thu 11:49:32 AM 57.0167 -69.9167 216° Southwest 440 506 36,000  Level Gander Center
Thu 11:50:32 AM 56.9000 -70.0333 209° Southwest 440 506 36,000  Level Gander Center
Thu 11:51:32 AM 56.8167 -70.1667 221° Southwest 450 518 36,000  Level Gander Center
Thu 11:52:32 AM 56.7000 -70.3000 212° Southwest 450 518 36,000  Level Gander Center
Thu 11:53:32 AM 56.6167 -70.4333 221° Southwest 450 518 36,000  Level Gander Center
Thu 11:54:32 AM 56.5000 -70.5500 209° Southwest 450 518 36,000  Level Gander Center
Thu 11:55:32 AM 56.3833 -70.6833 212° Southwest 450 518 36,000  Level Gander Center
Thu 11:56:32 AM 56.3000 -70.8167 222° Southwest 440 506 36,000  Level Gander Center
Thu 11:57:32 AM 56.1833 -70.9333 209° Southwest 440 506 36,000  Level Gander Center
Thu 11:58:32 AM 56.1000 -71.0667 222° Southwest 440 506 36,000  Level Gander Center
Thu 11:59:32 AM 55.9833 -71.1500 202° Southwest 440 506 36,000  Level Gander Center
Thu 12:00:32 PM 55.8833 -71.2833 217° Southwest 450 518 36,000  Level Gander Center
Thu 12:01:32 PM 55.7833 -71.4000 213° Southwest 440 506 36,000  Level Gander Center
Thu 12:02:32 PM 55.6833 -71.5333 217° Southwest 440 506 36,000  Level Gander Center
Thu 12:03:32 PM 55.5833 -71.6500 213° Southwest 450 518 36,000  Level Gander Center
Thu 12:04:32 PM 55.4833 -71.7667 213° Southwest 440 506 36,000  Level Gander Center
Thu 12:05:32 PM 55.3667 -71.8833 210° Southwest 450 518 36,000  Level Gander Center
Thu 12:06:32 PM 55.2833 -72.0167 222° Southwest 440 506 36,000  Level Gander Center
Thu 12:07:32 PM 55.1667 -72.1333 210° Southwest 440 506 36,000  Level Gander Center
Thu 12:08:32 PM 55.0667 -72.2500 214° Southwest 440 506 36,000  Level Gander Center
Thu 12:09:32 PM 54.9500 -72.3667 210° Southwest 440 506 36,000  Level Gander Center
Thu 12:10:32 PM 54.8667 -72.4833 219° Southwest 440 506 36,000  Level Gander Center
Thu 12:11:32 PM 54.7500 -72.6000 210° Southwest 450 518 36,000  Level Gander Center
Thu 12:12:32 PM 54.6500 -72.7333 218° Southwest 450 518 36,000  Level Gander Center
Thu 12:13:32 PM 54.5500 -72.8167 206° Southwest 450 518 36,000  Level Gander Center
Thu 12:14:32 PM 54.4500 -72.9333 214° Southwest 440 506 36,000  Level Gander Center
Thu 12:15:32 PM 54.3500 -73.0500 214° Southwest 440 506 36,000  Level Gander Center
Thu 12:16:32 PM 54.2500 -73.1667 214° Southwest 440 506 36,000  Level Gander Center
Thu 12:17:32 PM 54.1333 -73.2667 207° Southwest 440 506 36,000  Level Gander Center
Thu 12:18:20 PM 54.0500 -73.3167 199° South 440 506 36,000  Level Montreal Center
Thu 12:19:20 PM 53.9500 -73.4500 218° Southwest 440 506 36,000  Level Montreal Center
Thu 12:20:20 PM 53.8500 -73.5333 206° Southwest 440 506 36,000  Level Montreal Center
Thu 12:21:20 PM 53.7333 -73.6500 211° Southwest 440 506 36,000  Level Montreal Center
Thu 12:22:20 PM 53.6333 -73.7500 211° Southwest 440 506 36,000  Level Montreal Center
Thu 12:23:20 PM 53.5167 -73.8333 203° Southwest 440 506 36,000  Level Montreal Center
Thu 12:24:20 PM 53.4000 -73.9333 207° Southwest 440 506 36,000  Level Montreal Center
Thu 12:25:20 PM 53.3000 -74.0500 215° Southwest 440 506 36,000  Level Montreal Center
Thu 12:26:20 PM 53.1833 -74.1333 203° Southwest 430 495 36,000  Level Montreal Center
Thu 12:27:20 PM 53.0833 -74.2333 211° Southwest 440 506 36,000  Level Montreal Center
Thu 12:28:20 PM 52.9667 -74.3167 203° Southwest 440 506 36,000  Level Montreal Center
Thu 12:29:20 PM 52.8833 -74.4000 211° Southwest 440 506 36,000  Level Montreal Center
Thu 12:30:21 PM 52.7667 -74.4833 203° Southwest 440 506 36,000  Level Montreal Center
Thu 12:31:21 PM 52.6667 -74.5833 211° Southwest 440 506 36,000  Level Montreal Center
Thu 12:32:21 PM 52.5500 -74.6667 203° Southwest 440 506 36,000  Level Montreal Center
Thu 12:33:21 PM 52.4167 -74.7500 201° Southwest 440 506 36,000  Level Montreal Center
Thu 12:34:21 PM 52.3167 -74.8333 207° Southwest 440 506 36,000  Level Montreal Center
Thu 12:35:21 PM 52.2000 -74.9167 204° Southwest 440 506 36,000  Level Montreal Center
Thu 12:36:21 PM 52.0833 -75.0000 204° Southwest 430 495 36,000  Level Montreal Center
Thu 12:37:21 PM 51.9833 -75.0833 207° Southwest 450 518 36,000  Level Montreal Center
Thu 12:38:21 PM 51.8667 -75.2000 212° Southwest 440 506 36,000  Level Montreal Center
Thu 12:39:21 PM 51.7500 -75.2833 204° Southwest 440 506 36,000  Level Montreal Center
Thu 12:40:21 PM 51.6333 -75.3667 204° Southwest 440 506 36,000  Level Montreal Center
Thu 12:41:21 PM 51.5333 -75.4500 207° Southwest 440 506 36,000  Level Montreal Center
Thu 12:42:21 PM 51.4167 -75.5333 204° Southwest 440 506 36,000  Level Montreal Center
Thu 12:43:21 PM 51.3167 -75.6167 208° Southwest 440 506 36,000  Level Montreal Center
Thu 12:44:20 PM 51.2000 -75.7000 204° Southwest 440 506 36,000  Level Montreal Center
Thu 12:45:21 PM 51.0833 -75.7833 204° Southwest 440 506 36,000  Level Montreal Center
Thu 12:46:20 PM 50.9833 -75.8500 203° Southwest 440 506 36,000  Level Montreal Center
Thu 12:47:20 PM 50.8667 -75.9667 212° Southwest 440 506 36,000  Level Montreal Center
Thu 12:48:20 PM 50.7500 -76.0500 204° Southwest 440 506 36,000  Level Montreal Center
Thu 12:49:20 PM 50.6333 -76.1167 200° South 440 506 36,000  Level Montreal Center
Thu 12:50:20 PM 50.5333 -76.2000 208° Southwest 440 506 36,000  Level Montreal Center
Thu 12:51:20 PM 50.4167 -76.2833 204° Southwest 440 506 36,000  Level Montreal Center
Thu 12:52:20 PM 50.3167 -76.3667 208° Southwest 440 506 36,000  Level Montreal Center
Thu 12:53:20 PM 50.2000 -76.4333 200° South 440 506 36,000  Level Montreal Center
Thu 12:54:20 PM 50.0667 -76.5167 202° Southwest 440 506 36,000  Level Montreal Center
Thu 12:55:20 PM 49.9667 -76.6000 208° Southwest 440 506 36,000  Level Montreal Center
Thu 12:56:20 PM 49.8500 -76.6667 200° South 440 506 36,000  Level Montreal Center
Thu 12:57:20 PM 49.7333 -76.7500 205° Southwest 440 506 36,000  Level Montreal Center
Thu 12:58:20 PM 49.6167 -76.8500 209° Southwest 450 518 36,000  Level Montreal Center
Thu 12:59:20 PM 49.5167 -76.9167 203° Southwest 420 483 36,000  Level Montreal Center
Thu 01:00:20 PM 49.4000 -77.0000 205° Southwest 460 529 36,000  Level Montreal Center
Thu 01:01:20 PM 49.3000 -77.0667 204° Southwest 440 506 36,000  Level Montreal Center
Thu 01:02:20 PM 49.1833 -77.1500 205° Southwest 430 495 36,000  Level Montreal Center
Thu 01:03:20 PM 49.0667 -77.2167 201° Southwest 450 518 36,000  Level Montreal Center
Thu 01:04:20 PM 48.9667 -77.3000 209° Southwest 440 506 36,000  Level Montreal Center
Thu 01:05:20 PM 48.8333 -77.3667 198° South 440 506 36,000  Level Montreal Center
Thu 01:06:20 PM 48.7167 -77.4667 209° Southwest 440 506 36,000  Level Montreal Center
Thu 01:07:20 PM 48.6167 -77.5500 209° Southwest 440 506 36,000  Level Montreal Center
Thu 01:08:20 PM 48.5000 -77.6167 201° Southwest 440 506 36,000  Level Montreal Center
Thu 01:09:20 PM 48.3833 -77.6833 201° Southwest 440 506 36,000  Level Montreal Center
Thu 01:10:20 PM 48.2833 -77.7667 209° Southwest 440 506 36,000  Level Montreal Center
Thu 01:11:20 PM 48.1667 -77.8333 201° Southwest 440 506 36,000  Level Montreal Center
Thu 01:12:20 PM 48.0500 -77.9000 201° Southwest 440 506 36,000  Level Montreal Center
Thu 01:13:20 PM 47.9167 -77.9667 199° South 440 506 36,000  Level Montreal Center
Thu 01:14:20 PM 47.8000 -78.0500 206° Southwest 450 518 36,000  Level Montreal Center
Thu 01:15:21 PM 47.6833 -78.1167 201° Southwest 450 518 36,000  Level Montreal Center
Thu 01:16:21 PM 47.5833 -78.1500 193° South 450 518 36,000  Level Montreal Center
Thu 01:17:21 PM 47.4667 -78.2333 206° Southwest 450 518 36,000  Level Montreal Center
Thu 01:18:21 PM 47.3500 -78.3000 201° Southwest 450 518 36,000  Level Montreal Center
Thu 01:19:21 PM 47.2333 -78.3667 201° Southwest 450 518 36,000  Level Montreal Center
Thu 01:20:21 PM 47.1000 -78.4333 199° South 450 518 36,000  Level Montreal Center
Thu 01:21:21 PM 46.9833 -78.5000 201° Southwest 450 518 36,000  Level Montreal Center
Thu 01:22:25 PM 46.8667 -78.5667 201° Southwest 450 518 36,000  Level Toronto Center
Thu 01:23:25 PM 46.7500 -78.6167 196° South 450 518 36,000  Level Toronto Center
Thu 01:28:59 PM 46.1118 -78.9872 201° Southwest 452 520 36,000  Level FlightAware ADS-B (CYYZ)
Thu 01:29:30 PM 46.0672 -79.0113 201° Southwest 451 519 36,000  Level FlightAware ADS-B (CYYZ)
Thu 01:29:51 PM 46.0063 -79.0443 201° Southwest 450 518 36,000  Level FlightAware ADS-B
Thu 01:29:58 PM 45.9931 -79.0514 201° Southwest 450 518 36,000  Level FlightAware ADS-B (CYYZ)
Thu 01:30:29 PM 45.9611 -79.0686 201° Southwest 450 518 36,000  Level FlightAware ADS-B (CYYZ)
Thu 01:30:59 PM 45.8814 -79.1115 201° Southwest 450 518 36,000  Level FlightAware ADS-B (CYYZ)
Thu 01:31:29 PM 45.8195 -79.1449 201° Southwest 450 518 36,000  Level FlightAware ADS-B (CYYZ)
Thu 01:32:00 PM 45.7569 -79.1785 201° Southwest 450 518 36,000  Level FlightAware ADS-B (CYYZ)
Thu 01:32:29 PM 45.7140 -79.2014 201° Southwest 451 519 36,000  Level FlightAware ADS-B (CYYZ)
Thu 01:32:59 PM 45.6407 -79.2404 201° Southwest 453 521 36,000  Level FlightAware ADS-B (CYYZ)
Thu 01:33:29 PM 45.5885 -79.2681 201° Southwest 453 521 36,000  Level FlightAware ADS-B (CYYZ)
Thu 01:33:59 PM 45.5243 -79.3021 201° Southwest 451 519 36,000  Level FlightAware ADS-B (CYYZ)
Thu 01:34:29 PM 45.4673 -79.3323 201° Southwest 450 518 36,000  Level FlightAware ADS-B (CYYZ)
Thu 01:34:59 PM 45.4071 -79.3642 201° Southwest 450 518 36,000  Level FlightAware ADS-B (CYYZ)
Thu 01:35:30 PM 45.3506 -79.3940 201° Southwest 449 517 36,000  Level FlightAware ADS-B (CYYZ)
Thu 01:35:59 PM 45.2894 -79.4262 201° Southwest 449 517 36,000  Level FlightAware ADS-B (CYYZ)
Thu 01:36:29 PM 45.2318 -79.4565 201° Southwest 451 519 36,000  Level FlightAware ADS-B (CYYZ)
Thu 01:36:59 PM 45.1726 -79.4874 201° Southwest 452 520 36,000  Level FlightAware ADS-B (CYYZ)
Thu 01:37:28 PM 45.1162 -79.5170 201° Southwest 453 521 36,000  Level FlightAware ADS-B (CYYZ)
Thu 01:37:59 PM 45.0616 -79.5455 201° Southwest 453 521 36,000  Level FlightAware ADS-B (CYYZ)
Thu 01:38:28 PM 44.9997 -79.5778 201° Southwest 452 520 36,000  Level FlightAware ADS-B (CYYZ)
Thu 01:38:49 PM 44.9643 -79.5962 201° Southwest 451 519 36,000  Level FlightAware ADS-B (CYYZ)
Thu 01:40:29 PM 44.7647 -79.6993 200° South 451 519 36,000  Level FlightAware ADS-B (EPLB / LUZ)
Thu 01:40:59 PM 44.7476 -79.7081 201° Southwest 452 520 36,000  Level FlightAware ADS-B (CYYZ)
Thu 01:41:08 PM 44.6887 -79.7384 200° South 452 520 36,000  Level FlightAware ADS-B (EPLB / LUZ)
Thu 01:41:29 PM 44.6469 -79.7600 201° Southwest 454 522 36,000  Level FlightAware ADS-B (CYYZ)
Thu 01:41:58 PM 44.5902 -79.7922 205° Southwest 447 514 36,000  Level FlightAware ADS-B (EPLB / LUZ)
Thu 01:41:59 PM 44.5886 -79.7932 205° Southwest 447 514 36,000  Level FlightAware ADS-B (CYYZ)
Thu 01:42:28 PM 44.5529 -79.8188 209° Southwest 441 507 36,000  Level FlightAware ADS-B (EPGD / GDN)
Thu 01:42:29 PM 44.5339 -79.8346 212° Southwest 439 505 36,000  Level FlightAware ADS-B (CYYZ)
Thu 01:43:09 PM 44.4665 -79.8966 214° Southwest 440 506 36,000  Level FlightAware ADS-B (CYYZ)
Thu 01:43:10 PM 44.4751 -79.8885 214° Southwest 439 505 36,000  Level FlightAware ADS-B (EPLB / LUZ)
Thu 01:43:40 PM 44.4155 -79.9434 214° Southwest 444 511 36,000  Level FlightAware ADS-B (CYYZ)
Thu 01:43:53 PM 44.3913 -79.9653 213° Southwest 444 511 36,000  Level FlightAware ADS-B (EPLB / LUZ)
Thu 01:44:09 PM 44.3641 -79.9898 213° Southwest 444 511 36,000  Level FlightAware ADS-B (CYYZ)
Thu 01:44:24 PM 44.3391 -80.0122 213° Southwest 444 511 36,000  Level FlightAware ADS-B (EPLB / LUZ)
Thu 01:44:40 PM 44.3111 -80.0372 213° Southwest 445 512 36,000  Level FlightAware ADS-B (CYYZ)
Thu 01:45:05 PM 44.2831 -80.0622 213° Southwest 442 509 36,000  Level FlightAware ADS-B (EPLB / LUZ)
Thu 01:45:09 PM 44.2597 -80.0832 213° Southwest 443 510 36,000  Level FlightAware ADS-B (CYYZ)
Thu 01:45:40 PM 44.2086 -80.1286 213° Southwest 438 504 36,000  Level FlightAware ADS-B (CYYZ)
Thu 01:46:09 PM 44.1576 -80.1741 213° Southwest 435 501 36,000  Level FlightAware ADS-B (CYYZ)
Thu 01:46:13 PM 44.1790 -80.1551 213° Southwest 434 499 36,000  Level FlightAware ADS-B (EPLB / LUZ)
Thu 01:46:40 PM 44.1080 -80.2183 213° Southwest 434 499 36,000  Level FlightAware ADS-B (CYYZ)
Thu 01:46:49 PM 44.0936 -80.2311 213° Southwest 434 499 36,000  Level FlightAware ADS-B (EPLB / LUZ)
Thu 01:47:10 PM 44.0561 -80.2644 213° Southwest 434 499 36,000  Level FlightAware ADS-B (CYYZ)
Thu 01:47:26 PM 44.0291 -80.2883 213° Southwest 434 499 36,000  Level FlightAware ADS-B (EPLB / LUZ)
Thu 01:47:40 PM 44.0057 -80.3091 213° Southwest 434 499 36,000  Level FlightAware ADS-B (CYYZ)
Thu 01:48:02 PM 43.9676 -80.3428 213° Southwest 433 498 36,000  Level FlightAware ADS-B (EPLB / LUZ)
Thu 01:48:09 PM 43.9557 -80.3533 213° Southwest 434 499 36,000  Level FlightAware ADS-B (CYYZ)
Thu 01:48:39 PM 43.9045 -80.3984 213° Southwest 435 501 36,000  Level FlightAware ADS-B (CYYZ)
Thu 01:48:42 PM 43.9045 -80.3984 213° Southwest 434 499 36,000  Level FlightAware ADS-B (EPLB / LUZ)
Thu 01:49:09 PM 43.8602 -80.4375 213° Southwest 435 501 36,000  Level FlightAware ADS-B (CYYZ)
Thu 01:49:14 PM 43.8752 -80.4243 213° Southwest 434 499 36,000  Level FlightAware ADS-B (EPLB / LUZ)
Thu 01:49:37 PM 43.8068 -80.4845 213° Southwest 435 501 36,000  Level FlightAware ADS-B (CYYZ)
Thu 01:49:58 PM 43.7747 -80.5126 212° Southwest 433 498 36,000  Level FlightAware ADS-B (EPLB / LUZ)
Thu 01:50:10 PM 43.7570 -80.5282 213° Southwest 433 498 36,000  Level FlightAware ADS-B (CYYZ)
Thu 01:50:39 PM 43.7040 -80.5745 213° Southwest 434 499 36,000  Level FlightAware ADS-B (CYYZ)
Thu 01:50:44 PM 43.7404 -80.5426 212° Southwest 433 498 36,000  Level FlightAware ADS-B (EPLB / LUZ)
Thu 01:51:09 PM 43.6510 -80.6207 213° Southwest 433 498 36,000  Level FlightAware ADS-B (CYYZ)
Thu 01:51:26 PM 43.6245 -80.6439 212° Southwest 432 497 36,000  Level FlightAware ADS-B (EPLB / LUZ)
Thu 01:51:31 PM 43.6176 -80.6499 213° Southwest 433 498 36,000  Level FlightAware ADS-B (CYYZ)
Thu 01:52:05 PM 43.5623 -80.6980 213° Southwest 432 497 36,000  Level FlightAware ADS-B (CYYZ)
Thu 01:52:17 PM 43.5378 -80.7193 212° Southwest 432 497 36,000  Level FlightAware ADS-B
Thu 01:52:57 PM 43.4690 -80.7790 212° Southwest 433 498 36,000  Level FlightAware ADS-B (EPLB / LUZ)
Thu 01:53:09 PM 43.4490 -80.7963 213° Southwest 435 501 36,000  Level FlightAware ADS-B (CYYZ)
Thu 01:53:37 PM 43.4012 -80.8375 212° Southwest 435 501 36,000  Level FlightAware ADS-B (EPLB / LUZ)
Thu 01:53:39 PM 43.4000 -80.8385 213° Southwest 435 501 36,000  Level FlightAware ADS-B (CYYZ)
Thu 01:54:09 PM 43.3475 -80.8838 213° Southwest 435 501 36,000  Level FlightAware ADS-B (CYYZ)
Thu 01:54:28 PM 43.3177 -80.9093 212° Southwest 435 501 36,000  Level FlightAware ADS-B (EPLB / LUZ)
Thu 01:54:39 PM 43.2960 -80.9281 213° Southwest 436 502 36,000  Level FlightAware ADS-B (CYYZ)
Thu 01:55:07 PM 43.2502 -80.9676 212° Southwest 436 502 36,000  Level FlightAware ADS-B (EPLB / LUZ)
Thu 01:55:09 PM 43.2451 -80.9720 213° Southwest 437 503 36,000  Level FlightAware ADS-B (CYYZ)
Thu 01:55:39 PM 43.1931 -81.0167 213° Southwest 435 501 36,000  Level FlightAware ADS-B (CYYZ)
Thu 01:55:44 PM 43.1844 -81.0242 212° Southwest 435 501 36,000  Level FlightAware ADS-B (EPLB / LUZ)
Thu 01:56:10 PM 43.1416 -81.0607 213° Southwest 435 501 36,000  Level FlightAware ADS-B (CYYZ)
Thu 01:56:27 PM 43.1165 -81.0820 212° Southwest 434 499 36,000  Level FlightAware ADS-B (EPLB / LUZ)
Thu 01:56:39 PM 43.0911 -81.1037 212° Southwest 436 502 36,000  Level FlightAware ADS-B (CYYZ)
Thu 01:57:03 PM 43.0550 -81.1343 211° Southwest 437 503 36,000  Level FlightAware ADS-B (EPLB / LUZ)
Thu 01:57:14 PM 43.0298 -81.1528 207° Southwest 444 511 36,000  Level FlightAware ADS-B (CYYZ)
Thu 01:57:41 PM 42.9810 -81.1826 204° Southwest 450 518 36,000  Level FlightAware ADS-B (EPLB / LUZ)
Thu 01:57:55 PM 42.9548 -81.1988 205° Southwest 449 517 36,000  Level FlightAware ADS-B (CYYZ)
Thu 01:58:16 PM 42.9144 -81.2245 205° Southwest 447 514 36,000  Level FlightAware ADS-B (EPLB / LUZ)
Thu 01:58:25 PM 42.8992 -81.2342 206° Southwest 449 517 36,000  Level FlightAware ADS-B (CYYZ)
Thu 01:58:55 PM 42.8419 -81.2701 205° Southwest 450 518 36,000  Level FlightAware ADS-B (CYYZ)
Thu 01:58:56 PM 42.8378 -81.2727 205° Southwest 449 517 36,000  Level FlightAware ADS-B (EPLB / LUZ)
Thu 01:59:24 PM 42.7858 -81.3048 205° Southwest 451 519 36,000  Level FlightAware ADS-B (CYYZ)
Thu 01:59:49 PM 42.7409 -81.3325 204° Southwest 451 519 36,000  Level FlightAware ADS-B (EPLB / LUZ)
Thu 01:59:53 PM 42.7324 -81.3377 205° Southwest 452 520 36,000  Level FlightAware ADS-B (CYYZ)
Thu 02:00:25 PM 42.6713 -81.3752 205° Southwest 452 520 36,000  Level FlightAware ADS-B (CYYZ)
Thu 02:00:55 PM 42.6138 -81.4104 205° Southwest 452 520 36,000  Level FlightAware ADS-B (CYYZ)
Thu 02:01:13 PM 42.5837 -81.4287 204° Southwest 451 519 36,000  Level FlightAware ADS-B (EPLB / LUZ)
Thu 02:01:25 PM 42.5575 -81.4447 205° Southwest 450 518 36,000  Level FlightAware ADS-B (CYYZ)
Thu 02:01:51 PM 42.5090 -81.4743 204° Southwest 449 517 36,000  Level FlightAware ADS-B (EPLB / LUZ)
Thu 02:01:55 PM 42.5010 -81.4791 205° Southwest 449 517 36,000  Level FlightAware ADS-B (CYYZ)
Thu 02:02:25 PM 42.4459 -81.5127 205° Southwest 447 514 36,000  Level FlightAware ADS-B (CYYZ)
Thu 02:02:33 PM 42.4510 -81.5095 204° Southwest 447 514 36,000  Level FlightAware ADS-B (EPLB / LUZ)
Thu 02:02:55 PM 42.3876 -81.5480 205° Southwest 447 514 36,000  Level FlightAware ADS-B (CYYZ)
Thu 02:03:25 PM 42.3307 -81.5825 205° Southwest 446 513 36,000  Level FlightAware ADS-B (CYYZ)
Thu 02:03:54 PM 42.2747 -81.6164 205° Southwest 446 513 36,000  Level FlightAware ADS-B (CYYZ)
Thu 02:04:25 PM 42.2186 -81.6502 205° Southwest 445 512 36,000  Level FlightAware ADS-B (CYYZ)
Thu 02:04:55 PM 42.1632 -81.6837 205° Southwest 444 511 36,000  Level FlightAware ADS-B (CYYZ)
Thu 02:05:24 PM 42.1078 -81.7171 205° Southwest 444 511 36,000  Level FlightAware ADS-B (CYYZ)
Thu 02:05:55 PM 42.0503 -81.7516 205° Southwest 444 511 36,000  Level FlightAware ADS-B (CYYZ)
Thu 02:06:24 PM 41.9945 -81.7852 205° Southwest 444 511 36,000  Level FlightAware ADS-B (CYYZ)
Thu 02:06:55 PM 41.9378 -81.8193 205° Southwest 444 511 36,000  Level FlightAware ADS-B (CYYZ)
Thu 02:07:24 PM 41.8852 -81.8506 205° Southwest 442 509 36,000  Level FlightAware ADS-B (CYYZ)
Thu 02:07:54 PM 41.8266 -81.8853 205° Southwest 440 506 36,000  Level FlightAware ADS-B (CYYZ)
Thu 02:08:25 PM 41.7706 -81.9186 205° Southwest 438 504 36,000  Level FlightAware ADS-B (CYYZ)
Thu 02:08:54 PM 41.7202 -81.9485 205° Southwest 438 504 36,000  Level FlightAware ADS-B (CYYZ)
Thu 02:09:20 PM 41.6828 -81.9707 204° Southwest 437 503 36,000  Level FlightAware ADS-B (CYYZ)
Thu 02:10:25 PM 41.5717 -82.0365 204° Southwest 440 506 36,000  Level FlightAware ADS-B (CYYZ)
Thu 02:11:19 PM 41.4758 -82.0931 205° Southwest 440 506 36,000  Level FlightAware ADS-B (CYYZ)
Thu 02:12:21 PM 41.3436 -82.1664 205° Southwest 434 499 36,000  Level Indianapolis Center
Thu 02:13:22 PM 41.2217 -82.2086 195° South 448 516 36,000  Level Indianapolis Center
Thu 02:14:24 PM 41.1025 -82.2539 196° South 448 516 36,000  Level Indianapolis Center
Thu 02:15:26 PM 40.9822 -82.2964 195° South 447 514 36,000  Level Indianapolis Center
Thu 02:21:02 PM 40.4501 -82.4842 195° South 441 507 36,000  Level FlightAware ADS-B (EGOD)
Thu 02:22:25 PM 40.1180 -82.5891 185° South 454 522 36,000  Level FlightAware ADS-B (EGOD)
Thu 02:23:09 PM 40.0262 -82.5959 184° South 457 526 36,000  Level FlightAware ADS-B (EGOD)
Thu 02:23:49 PM 39.9422 -82.6026 183° South 457 526 36,000  Level FlightAware ADS-B (EGOD)
Thu 02:24:29 PM 39.8828 -82.6067 183° South 457 526 36,000  Level FlightAware ADS-B (EGOD)
Thu 02:25:07 PM 39.7801 -82.6136 183° South 457 526 36,000  Level FlightAware ADS-B
Thu 02:25:43 PM 39.7035 -82.6188 183° South 458 527 36,000  Level FlightAware ADS-B
Thu 02:26:13 PM 39.6424 -82.6229 183° South 459 528 36,000  Level FlightAware ADS-B
Thu 02:26:55 PM 39.5516 -82.6290 183° South 460 529 36,000  Level FlightAware ADS-B
Thu 02:27:25 PM 39.4877 -82.6333 183° South 461 531 36,000  Level FlightAware ADS-B
Thu 02:28:03 PM 39.4053 -82.6388 183° South 464 534 36,000  Level FlightAware ADS-B
Thu 02:28:43 PM 39.3215 -82.6444 183° South 466 536 36,000  Level FlightAware ADS-B
Thu 02:29:16 PM 39.2527 -82.6490 183° South 466 536 36,000  Level FlightAware ADS-B
Thu 02:29:46 PM 39.1894 -82.6531 183° South 466 536 36,000  Level FlightAware ADS-B
Thu 02:30:29 PM 39.0924 -82.6595 183° South 463 533 36,000  Level FlightAware ADS-B
Thu 02:30:59 PM 39.0292 -82.6638 183° South 462 532 36,000  Level FlightAware ADS-B
Thu 02:31:43 PM 38.9370 -82.6699 183° South 462 532 36,000  Level FlightAware ADS-B
Thu 02:32:13 PM 38.8792 -82.6738 183° South 461 531 36,000  Level FlightAware ADS-B
Thu 02:32:55 PM 38.7842 -82.6799 183° South 458 527 36,000  Level FlightAware ADS-B
Thu 02:33:26 PM 38.7171 -82.6842 183° South 456 525 36,000  Level FlightAware ADS-B
Thu 02:34:07 PM 38.6500 -82.6886 183° South 453 521 36,000  Level FlightAware ADS-B
Thu 02:35:03 PM 38.5314 -82.6967 183° South 454 522 36,000  Level Indianapolis Center
Thu 02:36:05 PM 38.4039 -82.7047 183° South 454 522 36,000  Level Indianapolis Center
Thu 02:37:07 PM 38.2778 -82.7147 184° South 454 522 36,000  Level Indianapolis Center
Thu 02:38:09 PM 38.1303 -82.7231 183° South 454 522 36,000  Level Indianapolis Center
Thu 02:39:11 PM 38.0033 -82.7322 183° South 454 522 36,000  Level Indianapolis Center
Thu 02:40:13 PM 37.8772 -82.7411 183° South 454 522 36,000  Level Indianapolis Center
Thu 02:41:15 PM 37.7517 -82.7492 183° South 454 522 36,000  Level Indianapolis Center
Thu 02:42:18 PM 37.6361 -82.7853 194° South 433 498 36,000  Level Indianapolis Center
Thu 02:43:20 PM 37.5142 -82.8594 206° Southwest 420 483 36,000  Level Indianapolis Center
Thu 02:44:22 PM 37.4131 -82.9281 208° Southwest 414 476 36,000  Level Indianapolis Center
Thu 02:45:24 PM 37.3100 -82.9939 207° Southwest 414 476 36,000  Level Indianapolis Center
Thu 02:46:26 PM 37.2064 -83.0611 207° Southwest 417 480 36,000  Level Indianapolis Center
Thu 02:47:28 PM 37.1033 -83.1283 207° Southwest 417 480 36,000  Level Indianapolis Center
Thu 02:48:30 PM 36.9842 -83.2050 207° Southwest 418 481 36,000  Level Indianapolis Center
Thu 02:49:32 PM 36.8811 -83.2722 208° Southwest 418 481 36,000  Level Indianapolis Center
Thu 02:50:34 PM 36.7772 -83.3389 207° Southwest 419 482 36,000  Level Indianapolis Center
Thu 02:51:36 PM 36.6731 -83.4061 207° Southwest 419 482 36,000  Level Indianapolis Center
Thu 02:52:38 PM 36.5528 -83.4831 207° Southwest 419 482 36,000  Level Indianapolis Center
Thu 02:53:41 PM 36.4553 -83.5453 207° Southwest 419 482 36,000  Level Indianapolis Center
Thu 02:54:43 PM 36.3519 -83.6103 207° Southwest 419 482 36,000  Level Indianapolis Center
Thu 02:55:45 PM 36.2497 -83.6747 207° Southwest 416 479 36,000  Level Indianapolis Center
Thu 02:56:47 PM 36.1289 -83.7525 207° Southwest 410 472 36,000  Level Indianapolis Center
Thu 02:57:39 PM 36.0436 -83.8103 209° Southwest 414 476 36,000  Level Atlanta Center
Thu 02:58:39 PM 35.9414 -83.8719 206° Southwest 414 476 36,000  Level Atlanta Center
Thu 03:04:14 PM 35.2756 -84.0472 191° South 430 495 36,000  Level FlightAware ADS-B (KDZJ)
Thu 03:04:57 PM 35.1924 -84.0672 191° South 429 494 36,000  Level FlightAware ADS-B (KDZJ)
Thu 03:05:36 PM 35.1161 -84.0854 191° South 430 495 36,000  Level FlightAware ADS-B (KDZJ)
Thu 03:06:13 PM 35.0434 -84.1028 191° South 424 488 36,000  Level FlightAware ADS-B (KDZJ)
Thu 03:06:58 PM 34.9566 -84.1235 191° South 429 494 36,000  Level FlightAware ADS-B (KDZJ)
Thu 03:07:38 PM 34.8782 -84.1422 191° South 426 490 36,000  Level FlightAware ADS-B (KDZJ)
Thu 03:08:16 PM 34.8043 -84.1599 191° South 426 490 36,000  Level FlightAware ADS-B (KDZJ)
Thu 03:08:58 PM 34.7238 -84.1790 191° South 426 490 36,000  Level FlightAware ADS-B (KDZJ)
Thu 03:09:38 PM 34.6466 -84.1972 191° South 426 490 36,000  Level FlightAware ADS-B (KDZJ)
Thu 03:10:18 PM 34.5680 -84.2158 191° South 427 491 36,000  Level FlightAware ADS-B (KDZJ)
Thu 03:10:58 PM 34.4909 -84.2339 191° South 424 488 36,000  Level FlightAware ADS-B (KDZJ)
Thu 03:11:38 PM 34.4150 -84.2518 191° South 424 488 36,000  Level FlightAware ADS-B (KDZJ)
Thu 03:12:18 PM 34.3365 -84.2703 191° South 425 489 36,000  Level FlightAware ADS-B (KDZJ)
Thu 03:12:57 PM 34.2611 -84.2881 191° South 426 490 36,000  Level FlightAware ADS-B (KDZJ)
Thu 03:13:38 PM 34.1824 -84.3066 191° South 428 493 36,000  Level FlightAware ADS-B (KDZJ)
Thu 03:14:18 PM 34.1052 -84.3246 191° South 428 493 36,000  Level FlightAware ADS-B (KDZJ)
Thu 03:14:58 PM 34.0259 -84.3430 191° South 429 494 36,000  Level FlightAware ADS-B (KDZJ)
Thu 03:15:39 PM 33.9608 -84.3594 191° South 433 498 36,000  Level Atlanta Center
Thu 03:16:39 PM 33.8397 -84.3889 191° South 433 498 36,000  Level Atlanta Center
Thu 03:17:39 PM 33.7228 -84.4158 191° South 433 498 36,000  Level Atlanta Center
Thu 03:18:39 PM 33.6036 -84.4353 188° South 433 498 36,000  Level Atlanta Center
Thu 03:19:39 PM 33.4931 -84.4347 180° South 433 498 36,000  Level Atlanta Center
Thu 03:20:39 PM 33.3700 -84.4344 180° South 438 504 36,000 -250 Level Atlanta Center
Thu 03:21:39 PM 33.2489 -84.4314 179° South 438 504 35,500 -500 Descending Atlanta Center
Thu 03:22:39 PM 33.1300 -84.4283 179° South 432 497 35,000 -250 Descending Atlanta Center
Thu 03:23:39 PM 33.0131 -84.4278 180° South 432 497 35,000  Level Atlanta Center
Thu 03:24:39 PM 32.8919 -84.4272 180° South 427 491 35,000  Level Atlanta Center
Thu 03:25:39 PM 32.7750 -84.4192 177° South 427 491 35,000  Level Atlanta Center
Thu 03:26:39 PM 32.6561 -84.4164 179° South 427 491 35,000  Level Atlanta Center
Thu 03:27:39 PM 32.5392 -84.4133 179° South 427 491 35,000  Level Atlanta Center
Thu 03:28:39 PM 32.4181 -84.4128 180° South 427 491 35,000  Level Atlanta Center
Thu 03:30:13 PM 32.2242 -84.4078 179° South 442 509 35,000  Level Jacksonville Center
Thu 03:31:12 PM 32.1033 -84.4058 179° South 436 502 35,000  Level Jacksonville Center
Thu 03:32:12 PM 31.9864 -84.4014 178° South 436 502 35,000  Level Jacksonville Center
Thu 03:33:12 PM 31.8694 -84.3994 179° South 431 496 35,000  Level Jacksonville Center
Thu 03:34:12 PM 31.7547 -84.3978 179° South 420 483 35,000  Level Jacksonville Center
Thu 03:39:54 PM 31.1119 -84.3848 179° South 398 458 35,000  Level FlightAware ADS-B (KONZ)
Thu 03:41:04 PM 30.9759 -84.3821 179° South 397 457 35,000  Level FlightAware ADS-B (KONZ)
Thu 03:41:35 PM 30.9198 -84.3811 179° South 397 457 35,000 194 Level FlightAware ADS-B (KONZ)
Thu 03:42:06 PM 30.8628 -84.3800 179° South 398 458 35,200 568 Climbing FlightAware ADS-B (KONZ)
Thu 03:43:10 PM 30.7402 -84.3779 179° South 428 493 35,900 606 Climbing FlightAware ADS-B (KONZ)
Thu 03:43:45 PM 30.6690 -84.3742 175° South 443 510 36,200 646 Climbing FlightAware ADS-B (KONZ)
Thu 03:44:15 PM 30.6066 -84.3632 169° South 454 522 36,600 696 Climbing FlightAware ADS-B (KONZ)
Thu 03:44:54 PM 30.5416 -84.3441 162° South 467 537 37,000 226 Climbing FlightAware ADS-B (KONZ)
Thu 03:46:01 PM 30.3950 -84.2679 150° Southeast 488 562 37,000  Level FlightAware ADS-B (KONZ)
Thu 03:46:36 PM 30.3240 -84.2214 151° Southeast 485 558 37,000  Level FlightAware ADS-B (KONZ)
Thu 03:47:06 PM 30.2655 -84.1834 151° Southeast 485 558 37,000  Level FlightAware ADS-B (KONZ)
Thu 03:47:42 PM 30.1949 -84.1375 151° Southeast 485 558 37,000  Level FlightAware ADS-B (KONZ)
Thu 03:48:12 PM 30.1357 -84.0989 150° Southeast 484 557 37,000  Level FlightAware ADS-B (KONZ)
Thu 03:48:53 PM 30.0582 -84.0484 151° Southeast 486 559 37,000  Level FlightAware ADS-B (KONZ)
Thu 03:49:26 PM 29.9956 -84.0077 151° Southeast 486 559 37,000  Level FlightAware ADS-B (KONZ)
Thu 03:50:12 PM 29.9059 -83.9495 151° Southeast 487 560 37,000  Level FlightAware ADS-B (KONZ)
Thu 03:50:44 PM 29.8385 -83.9059 151° Southeast 487 560 37,000  Level FlightAware ADS-B (KONZ)
Thu 03:52:12 PM 29.6703 -83.8008 151° Southeast 481 554 37,000  Level Jacksonville Center
Thu 03:53:13 PM 29.5519 -83.7233 150° Southeast 481 554 37,000  Level Jacksonville Center
Thu 03:54:13 PM 29.4314 -83.6461 151° Southeast 481 554 37,000  Level Jacksonville Center
Thu 03:55:12 PM 29.3128 -83.5714 151° Southeast 481 554 37,000  Level Jacksonville Center
Thu 03:56:13 PM 29.1942 -83.4944 150° Southeast 481 554 37,000  Level Jacksonville Center
Thu 03:57:13 PM 29.0756 -83.4178 151° Southeast 481 554 37,000  Level Jacksonville Center
Thu 03:58:13 PM 28.9589 -83.3458 152° Southeast 481 554 37,000  Level Jacksonville Center
Thu 03:59:13 PM 28.8361 -83.2669 151° Southeast 481 554 37,000  Level Jacksonville Center
Thu 04:00:12 PM 28.7150 -83.1908 151° Southeast 494 568 37,000  Level Jacksonville Center
Thu 04:06:36 PM 27.9575 -82.7150 151° Southeast 475 547 37,000  Level FlightAware ADS-B
Thu 04:07:44 PM 27.8264 -82.6308 149° Southeast 473 544 37,000  Level FlightAware ADS-B
Thu 04:08:20 PM 27.7626 -82.5876 151° Southeast 470 541 37,000  Level FlightAware ADS-B
Thu 04:09:12 PM 27.6577 -82.5424 162° South 451 519 37,000  Level FlightAware ADS-B
Thu 04:14:30 PM 27.0290 -82.2714 138° Southeast 498 573 37,000  Level FlightAware ADS-B
Thu 04:15:00 PM 26.9793 -82.2212 138° Southeast 492 566 37,000  Level FlightAware ADS-B
Thu 04:15:28 PM 26.9316 -82.1778 149° Southeast 468 539 37,000  Level FlightAware ADS-B
Thu 04:16:30 PM 26.8102 -82.1157 156° South 454 522 37,000  Level FlightAware ADS-B
Thu 04:17:01 PM 26.7549 -82.0882 156° South 454 522 37,000  Level FlightAware ADS-B
Thu 04:18:11 PM 26.6191 -82.0211 156° South 455 524 37,000  Level FlightAware ADS-B
Thu 04:18:52 PM 26.5382 -81.9812 156° South 455 524 37,000  Level FlightAware ADS-B
Thu 04:19:22 PM 26.4800 -81.9525 156° South 456 525 37,000  Level FlightAware ADS-B
Thu 04:19:57 PM 26.4124 -81.9192 156° South 456 525 37,000  Level FlightAware ADS-B
Thu 04:20:32 PM 26.3446 -81.8859 156° South 458 527 37,000  Level FlightAware ADS-B
Thu 04:21:03 PM 26.2835 -81.8559 156° South 457 526 37,000  Level FlightAware ADS-B
Thu 04:21:42 PM 26.2111 -81.8204 156° South 463 533 37,000  Level FlightAware ADS-B
Thu 04:22:12 PM 26.1482 -81.7894 156° South 460 529 37,000  Level FlightAware ADS-B
Thu 04:22:46 PM 26.0834 -81.7577 156° South 457 526 37,000  Level FlightAware ADS-B
Thu 04:23:52 PM 25.9577 -81.6964 156° South 458 527 37,000  Level FlightAware ADS-B
Thu 04:24:23 PM 25.9577 -81.6964 156° South 460 529 37,000  Level FlightAware ADS-B
Thu 04:25:04 PM 25.9577 -81.6964 156° South 461 531 37,000  Level FlightAware ADS-B
Thu 04:26:08 PM 25.6936 -81.5677 156° South 463 533 37,000  Level FlightAware ADS-B
Thu 04:26:38 PM 25.6319 -81.5378 156° South 463 533 37,000  Level FlightAware ADS-B
Thu 04:27:09 PM 25.5737 -81.5096 156° South 463 533 37,000  Level FlightAware ADS-B
Thu 04:28:35 PM 25.5439 -81.4951 156° South 465 535 37,000  Level FlightAware ADS-B
Thu 04:31:00 PM 25.1115 -81.2895 166° South 450 518 37,000 -256 Level FlightAware ADS-B
Thu 04:32:06 PM 24.9958 -81.3039 166° South 411 473 36,100 -905 Descending Miami Center
Thu 04:33:06 PM 24.9142 -81.3789 220° Southwest 377 434 35,100 -1,000 Descending Miami Center
Thu 04:34:06 PM 24.8364 -81.4583 223° Southwest 367 422 34,100 -1,000 Descending Miami Center
Thu 04:35:06 PM 24.7628 -81.5425 226° Southwest 377 434 33,100 -1,650 Descending Miami Center
Thu 04:36:06 PM 24.7019 -81.6181 228° Southwest 377 434 30,800 -2,500 Descending Miami Center
Thu 04:37:06 PM 24.6133 -81.7128 224° Southwest 386 444 28,100 -2,400 Descending Miami Center
Thu 04:38:06 PM 24.5350 -81.8056 227° Southwest 399 459 26,000 -1,850 Descending Miami Center
Thu 04:39:06 PM 24.4739 -81.8831 229° Southwest 393 452 24,400 -1,500 Descending Miami Center
Thu 04:40:06 PM 24.4128 -81.9672 231° Southwest 368 423 23,000 -1,200 Descending Miami Center
Thu 04:41:06 PM 24.3533 -82.0536 233° Southwest 363 418 22,000 -500 Descending Miami Center
Thu 04:42:06 PM 24.2919 -82.1331 230° Southwest 363 418 22,000  Level Miami Center
Thu 04:43:06 PM 24.2264 -82.2144 229° Southwest 363 418 22,000  Level Miami Center
Thu 04:44:06 PM 24.1672 -82.2961 232° Southwest 363 418 22,000  Level Miami Center
Thu 04:45:06 PM 24.1036 -82.3753 229° Southwest 357 411 22,000  Level Miami Center
Thu 04:46:06 PM 24.0550 -82.4506 235° Southwest 338 389 22,000  Level Miami Center
Thu 04:47:06 PM 24.0028 -82.5094 226° Southwest 301 346 22,000  Level Miami Center
Thu 04:49:00 PM 23.7761 -82.4847 173° South  Level FlightAware Approximate
Thu 04:56:00 PM 22.9891 -82.4091 180° South  Level Estimated
Thu 04:57:00 PM 22.9891 -82.4091 180° South  Level Estimated
Thu 04:58:00 PM 22.9891 -82.4091 180° South  Level Estimated
Thu 04:59:00 PM 22.9891 -82.4091 180° South  Level Estimated
Thu 05:00:00 PM 22.9891 -82.4091 180° South  Level Estimated
Thu 05:01:00 PM 22.9891 -82.4091 180° South  Level Estimated
Thu 05:02:00 PM 22.9891 -82.4091 180° South  Level Estimated
Thu 05:03:00 PM 22.9891 -82.4091 180° South  Level Estimated
Thu 05:04:00 PM 22.9891 -82.4091 180° South  Level Estimated
Thu 05:05:00 PM 22.9891 -82.4091 180° South  Level Estimated
Thu 05:06:00 PM 22.9891 -82.4091 180° South  Level Estimated
Thu 05:07:00 PM 22.9891 -82.4091 180° South  Level Estimated
Thu 05:08:00 PM 22.9891 -82.4091 180° South  Level Estimated
Thu 05:09:00 PM 22.9891 -82.4091 180° South  Level Estimated
Thu 05:10:00 PM 22.9891 -82.4091 180° South  Level Estimated
Thu 05:11:00 PM 22.9891 -82.4091 180° South  Level Estimated
Thu 05:12:00 PM 22.9891 -82.4091 180° South  Level Estimated
Thu 05:13:00 PM 22.9891 -82.4091 180° South  Level Estimated
Thu 05:14:00 PM 22.9891 -82.4091 180° South  Level Estimated
Thu 05:15:00 PM 22.9891 -82.4091 180° South  Level Estimated
Thu 05:16:00 PM 22.9891 -82.4091 180° South  Level Estimated

Login

Don't have an account? Register now (free) for customized features, flight alerts, and more!